Terminal Aerodrome Forecast
Issued by NWS Central Illinois

Home | Current Version | Previous Version | Text Only | Print | Product List | Glossary On
Versions: 1 2 3 4 5 6 7 8 9 10 11 12 13 14 15 16 17
169
FTUS43 KILX 221331 AAB
TAFSPI
TAF AMD
KSPI 221331Z 2214/2312 18012G22KT P6SM VCSH OVC025
      TEMPO 2214/2215 5SM -SHRA BR OVC015
     FM221500 19010KT 6SM -SHRA BR SCT008 OVC015
      TEMPO 2215/2217 3SM SHRA BR BKN008 OVC015
     FM221700 30009KT 4SM -SHRA BR SCT006 OVC015
     FM230000 33008KT P6SM OVC035=

USA.gov is the U.S. government's official web portal to all federal, state and local government web resources and services.